createdAt,value
2023-02-20T00:00:49.093Z,71.28
2023-02-20T00:03:16.501Z,71.41
2023-02-20T00:05:43.726Z,71.29
2023-02-20T00:08:10.987Z,70.75
2023-02-20T00:10:37.760Z,71.10
2023-02-20T00:13:06.113Z,71.28
2023-02-20T00:15:34.011Z,71.68
2023-02-20T00:18:02.542Z,72.54
2023-02-20T00:20:30.389Z,72.46
2023-02-20T00:22:57.617Z,72.04
2023-02-20T00:25:24.909Z,72.68
2023-02-20T00:27:55.192Z,71.93
2023-02-20T00:30:24.828Z,72.90
2023-02-20T00:32:58.055Z,73.39
2023-02-20T00:35:26.822Z,73.85
2023-02-20T00:37:55.158Z,73.84
2023-02-20T00:40:24.881Z,74.35
2023-02-20T00:42:51.805Z,74.11
2023-02-20T00:45:19.157Z,74.77
2023-02-20T00:47:47.551Z,74.81
2023-02-20T00:50:16.127Z,74.95
2023-02-20T00:52:44.776Z,75.41
2023-02-20T00:55:11.881Z,75.42
2023-02-20T00:57:39.430Z,75.50
2023-02-20T01:00:08.899Z,74.67
2023-02-20T01:02:35.766Z,74.93
2023-02-20T01:05:06.225Z,76.03
2023-02-20T01:07:32.841Z,75.42
2023-02-20T01:09:59.676Z,75.97
2023-02-20T01:12:29.721Z,75.77
2023-02-20T01:14:56.647Z,75.90
2023-02-20T01:17:23.199Z,75.25
2023-02-20T01:19:53.142Z,75.54
2023-02-20T01:22:24.959Z,75.70
2023-02-20T01:24:51.616Z,75.40
2023-02-20T01:27:18.297Z,75.98
2023-02-20T01:29:45.127Z,76.24
2023-02-20T01:32:14.267Z,75.71
2023-02-20T01:34:41.392Z,75.57
2023-02-20T01:37:14.052Z,75.98
2023-02-20T01:39:41.483Z,75.79
2023-02-20T01:42:15.465Z,74.73
2023-02-20T01:44:44.242Z,75.98
2023-02-20T01:47:22.869Z,75.30
2023-02-20T01:50:00.203Z,76.70
2023-02-20T01:52:30.781Z,77.36
2023-02-20T01:55:18.126Z,76.88
2023-02-20T01:57:52.438Z,76.89
2023-02-20T02:00:22.141Z,78.62
2023-02-20T02:03:13.144Z,78.47
2023-02-20T02:05:49.585Z,79.33
2023-02-20T02:08:19.641Z,79.55
2023-02-20T02:11:02.410Z,79.64
2023-02-20T02:13:33.616Z,79.92
2023-02-20T02:16:20.480Z,79.13
2023-02-20T02:19:15.893Z,79.64
2023-02-20T02:22:14.746Z,79.52
2023-02-20T02:25:06.141Z,79.01
2023-02-20T02:27:48.650Z,80.07
2023-02-20T02:30:58.701Z,80.09
2023-02-20T02:33:58.112Z,79.71
2023-02-20T02:36:51.169Z,80.03
2023-02-20T02:40:10.265Z,79.62
2023-02-20T02:42:45.003Z,80.37
2023-02-20T02:45:38.429Z,79.43
2023-02-20T02:48:24.415Z,79.63
2023-02-20T02:50:59.348Z,80.83
2023-02-20T02:53:26.717Z,80.90
2023-02-20T02:55:55.551Z,80.27
2023-02-20T02:58:23.474Z,79.95
2023-02-20T03:00:59.933Z,80.22
2023-02-20T03:03:31.848Z,80.16
2023-02-20T03:06:17.783Z,79.93
2023-02-20T03:08:58.737Z,79.48
2023-02-20T03:11:28.262Z,79.36
2023-02-20T03:14:36.925Z,79.86
2023-02-20T03:17:27.750Z,79.27
2023-02-20T03:20:00.540Z,79.53
2023-02-20T03:22:39.248Z,79.30
2023-02-20T03:25:17.722Z,79.21
2023-02-20T03:27:52.149Z,79.29
2023-02-20T03:30:29.937Z,79.49
2023-02-20T03:33:25.749Z,78.80
2023-02-20T03:36:13.343Z,79.32
2023-02-20T03:39:03.230Z,79.66
2023-02-20T03:41:52.912Z,78.98
2023-02-20T03:44:25.734Z,79.74
2023-02-20T03:46:56.162Z,79.58
2023-02-20T03:49:30.110Z,79.36
2023-02-20T03:51:57.538Z,79.52
2023-02-20T03:54:38.133Z,79.91
2023-02-20T03:57:16.745Z,79.87
2023-02-20T03:59:54.308Z,79.60
2023-02-20T04:02:28.020Z,80.03
2023-02-20T04:05:00.616Z,78.95
2023-02-20T04:07:36.027Z,79.69
2023-02-20T04:10:07.216Z,80.12
2023-02-20T04:12:39.161Z,79.99
2023-02-20T04:15:08.470Z,80.84
2023-02-20T04:17:47.251Z,79.84
2023-02-20T04:20:15.635Z,79.58
2023-02-20T04:22:54.788Z,80.30
2023-02-20T04:25:38.237Z,80.42
2023-02-20T04:28:06.445Z,80.45
2023-02-20T04:30:45.468Z,81.07
2023-02-20T04:33:14.481Z,80.70
2023-02-20T04:35:41.595Z,80.09
2023-02-20T04:38:10.866Z,80.96
2023-02-20T04:40:39.830Z,80.56
2023-02-20T04:43:07.378Z,80.21
2023-02-20T04:45:35.638Z,80.60
2023-02-20T04:48:02.432Z,80.79
2023-02-20T04:50:33.703Z,80.86
2023-02-20T04:53:03.616Z,80.48
2023-02-20T04:55:32.679Z,80.68
2023-02-20T04:58:03.568Z,80.90
2023-02-20T05:00:43.725Z,80.14
2023-02-20T05:03:10.568Z,80.41
2023-02-20T05:05:37.258Z,79.55
2023-02-20T05:08:07.115Z,80.31
2023-02-20T05:10:35.857Z,79.97
2023-02-20T05:13:04.457Z,80.73
2023-02-20T05:15:33.224Z,80.25
2023-02-20T05:18:00.090Z,79.75
2023-02-20T05:20:48.511Z,80.28
2023-02-20T05:23:15.535Z,79.01
2023-02-20T05:25:42.298Z,79.45
2023-02-20T05:28:08.955Z,79.47
2023-02-20T05:30:35.681Z,79.72
2023-02-20T05:33:02.581Z,79.54
2023-02-20T05:35:29.335Z,80.38
2023-02-20T05:37:56.810Z,80.12
2023-02-20T05:40:23.417Z,80.22
2023-02-20T05:42:50.252Z,79.91
2023-02-20T05:45:19.073Z,79.87
2023-02-20T05:47:46.997Z,79.38
2023-02-20T05:50:13.618Z,78.94
2023-02-20T05:52:40.573Z,79.01
2023-02-20T05:55:08.729Z,91.46
2023-02-20T05:57:37.507Z,94.90
2023-02-20T06:00:05.357Z,90.95
2023-02-20T06:02:38.579Z,86.65
2023-02-20T06:05:08.490Z,83.57
2023-02-20T06:07:35.482Z,80.10
2023-02-20T06:10:04.158Z,78.24
2023-02-20T06:12:31.441Z,77.35
2023-02-20T06:14:59.332Z,76.65
2023-02-20T06:17:29.992Z,75.74
2023-02-20T06:19:58.261Z,69.14
2023-02-20T06:22:24.922Z,69.58
2023-02-20T06:24:52.047Z,70.05
2023-02-20T06:27:19.048Z,71.94
2023-02-20T06:29:48.757Z,72.58
2023-02-20T06:32:18.363Z,73.21
2023-02-20T06:34:46.265Z,74.77
2023-02-20T06:37:13.532Z,75.10
2023-02-20T06:39:42.977Z,75.40
2023-02-20T06:42:09.847Z,75.43
2023-02-20T06:44:36.485Z,76.72
2023-02-20T06:47:03.266Z,76.53
2023-02-20T06:49:31.181Z,76.86
2023-02-20T06:51:57.938Z,77.71
2023-02-20T06:54:24.863Z,78.08
2023-02-20T06:56:52.560Z,78.28
2023-02-20T06:59:19.722Z,78.78
2023-02-20T07:01:46.269Z,78.85
2023-02-20T07:04:21.074Z,78.59
2023-02-20T07:06:48.834Z,79.11
2023-02-20T07:09:16.252Z,78.66
2023-02-20T07:11:43.625Z,79.44
2023-02-20T07:14:10.478Z,78.96
2023-02-20T07:16:37.011Z,78.38
2023-02-20T07:19:04.273Z,78.96
2023-02-20T07:21:31.399Z,78.07
2023-02-20T07:23:58.213Z,77.50
2023-02-20T07:26:27.471Z,77.27
2023-02-20T07:28:55.557Z,77.38
2023-02-20T07:31:24.948Z,77.19
2023-02-20T07:33:55.984Z,75.14
2023-02-20T07:36:24.890Z,74.53
2023-02-20T07:39:00.768Z,74.22
2023-02-20T07:41:33.839Z,73.27
2023-02-20T07:44:00.631Z,71.86
2023-02-20T07:46:27.752Z,71.04
2023-02-20T07:48:55.017Z,69.72
2023-02-20T07:51:22.174Z,68.83
2023-02-20T07:53:50.459Z,67.98
2023-02-20T07:56:19.907Z,67.20
2023-02-20T07:58:46.994Z,66.68
2023-02-20T08:01:18.963Z,65.13
2023-02-20T08:03:46.129Z,64.75
2023-02-20T08:06:18.605Z,63.68
2023-02-20T08:08:50.421Z,63.15
2023-02-20T08:11:21.332Z,62.22
2023-02-20T08:13:48.881Z,61.93
2023-02-20T08:16:17.213Z,61.83
2023-02-20T08:18:44.384Z,62.57
2023-02-20T08:21:11.447Z,63.54
2023-02-20T08:23:38.256Z,64.22
2023-02-20T08:26:05.915Z,65.86
2023-02-20T08:28:32.968Z,66.00
2023-02-20T08:31:00.257Z,65.62
2023-02-20T08:33:27.128Z,64.96
2023-02-20T08:35:55.358Z,65.01
2023-02-20T08:38:39.080Z,63.53
2023-02-20T08:41:09.974Z,63.18
2023-02-20T08:43:39.301Z,63.15
2023-02-20T08:46:07.365Z,63.14
2023-02-20T08:48:34.595Z,63.46
2023-02-20T08:51:04.138Z,64.13
2023-02-20T08:53:31.190Z,63.67
2023-02-20T08:55:58.010Z,63.10
2023-02-20T08:58:26.109Z,61.70
2023-02-20T09:00:53.522Z,60.47
2023-02-20T09:03:20.196Z,59.58
2023-02-20T09:05:47.036Z,59.24
2023-02-20T09:08:14.340Z,58.15
2023-02-20T09:10:41.288Z,57.92
2023-02-20T09:13:09.175Z,57.65
2023-02-20T09:15:40.112Z,56.64
2023-02-20T09:18:11.593Z,56.75
2023-02-20T09:20:38.770Z,57.15
2023-02-20T09:23:06.578Z,56.41
2023-02-20T09:25:33.858Z,56.99
2023-02-20T09:28:00.924Z,58.44
2023-02-20T09:30:28.297Z,57.87
2023-02-20T09:32:55.278Z,57.33
2023-02-20T09:35:30.669Z,57.56
2023-02-20T09:37:59.056Z,56.84
2023-02-20T09:40:32.136Z,57.08
2023-02-20T09:43:25.588Z,57.90
2023-02-20T09:46:03.704Z,57.98
2023-02-20T09:48:54.950Z,58.43
2023-02-20T09:51:27.239Z,58.10
2023-02-20T09:54:13.206Z,58.56
2023-02-20T09:56:50.054Z,58.04
2023-02-20T09:59:22.190Z,58.35
2023-02-20T10:02:09.586Z,57.52
2023-02-20T10:04:58.919Z,58.05
2023-02-20T10:07:29.068Z,58.35
2023-02-20T10:09:58.816Z,57.46
2023-02-20T10:12:38.720Z,56.86
2023-02-20T10:15:42.681Z,57.02
2023-02-20T10:18:25.775Z,55.90
2023-02-20T10:21:13.402Z,56.36
2023-02-20T10:24:04.899Z,56.13
2023-02-20T10:26:40.334Z,55.73
2023-02-20T10:29:21.262Z,55.46
2023-02-20T10:32:01.960Z,55.80
2023-02-20T10:35:08.364Z,54.70
2023-02-20T10:37:47.400Z,54.59
2023-02-20T10:40:32.261Z,54.64
2023-02-20T10:43:21.480Z,55.36
2023-02-20T10:46:06.581Z,54.07
2023-02-20T10:48:34.847Z,54.39
2023-02-20T10:51:18.313Z,54.41
2023-02-20T10:54:12.900Z,54.18
2023-02-20T10:56:57.976Z,53.04
2023-02-20T10:59:53.165Z,53.75
2023-02-20T11:02:24.931Z,52.67
2023-02-20T11:05:03.802Z,52.30
2023-02-20T11:07:32.823Z,53.25
2023-02-20T11:09:59.790Z,52.97
2023-02-20T11:12:36.131Z,51.78
2023-02-20T11:15:18.333Z,51.63
2023-02-20T11:17:46.147Z,52.07
2023-02-20T11:20:37.769Z,51.65
2023-02-20T11:23:06.673Z,51.41
2023-02-20T11:25:38.933Z,51.21
2023-02-20T11:28:21.559Z,51.42
2023-02-20T11:30:58.625Z,51.11
2023-02-20T11:33:30.152Z,51.95
2023-02-20T11:35:59.512Z,52.81
2023-02-20T11:38:34.012Z,52.96
2023-02-20T11:41:06.218Z,53.51
2023-02-20T11:44:00.582Z,53.72
2023-02-20T11:46:28.940Z,53.56
2023-02-20T11:49:07.105Z,53.81
2023-02-20T11:51:46.397Z,53.84
2023-02-20T11:54:21.938Z,53.81
2023-02-20T11:57:07.214Z,53.80
2023-02-20T11:59:42.899Z,54.32
2023-02-20T12:02:15.803Z,54.00
2023-02-20T12:05:11.917Z,53.68
2023-02-20T12:08:20.148Z,53.62
2023-02-20T12:10:49.453Z,54.29
2023-02-20T12:13:17.632Z,53.63
2023-02-20T12:15:58.215Z,53.71
2023-02-20T12:18:32.800Z,53.46
2023-02-20T12:21:11.035Z,53.00
2023-02-20T12:23:48.589Z,53.52
2023-02-20T12:26:22.950Z,53.18
2023-02-20T12:29:20.346Z,53.62
2023-02-20T12:32:17.588Z,54.97
2023-02-20T12:35:09.482Z,55.18
2023-02-20T12:37:52.589Z,54.44
2023-02-20T12:40:39.929Z,54.99
2023-02-20T12:43:31.761Z,54.71
2023-02-20T12:46:10.861Z,54.83
2023-02-20T12:49:09.329Z,55.10
2023-02-20T12:51:53.927Z,55.38
2023-02-20T12:54:55.875Z,55.71
2023-02-20T12:57:30.215Z,55.46
2023-02-20T13:00:04.705Z,55.67
2023-02-20T13:02:42.132Z,55.20
2023-02-20T13:05:15.521Z,56.04
2023-02-20T13:07:47.005Z,55.84
2023-02-20T13:10:24.481Z,55.80
2023-02-20T13:12:52.655Z,55.21
2023-02-20T13:15:42.265Z,55.23
2023-02-20T13:18:35.767Z,55.82
2023-02-20T13:21:15.419Z,56.07
2023-02-20T13:23:44.813Z,55.84
2023-02-20T13:26:34.402Z,56.13
2023-02-20T13:29:16.287Z,55.42
2023-02-20T13:31:52.945Z,55.18
2023-02-20T13:34:19.808Z,55.63
2023-02-20T13:36:50.385Z,55.60
2023-02-20T13:39:17.713Z,55.61
2023-02-20T13:42:00.369Z,55.49
2023-02-20T13:44:36.004Z,54.54
2023-02-20T13:47:22.228Z,54.41
2023-02-20T13:49:58.343Z,54.17
2023-02-20T13:52:43.659Z,54.81
2023-02-20T13:55:10.798Z,54.46
2023-02-20T13:58:02.039Z,53.64
2023-02-20T14:00:28.916Z,53.36
2023-02-20T14:02:59.196Z,54.05
2023-02-20T14:05:32.271Z,54.36
2023-02-20T14:08:00.303Z,53.84
2023-02-20T14:10:37.934Z,53.78
2023-02-20T14:13:34.188Z,54.00
2023-02-20T14:16:28.176Z,53.40
2023-02-20T14:19:06.052Z,52.74
2023-02-20T14:21:35.129Z,52.57
2023-02-20T14:24:19.524Z,52.79
2023-02-20T14:26:47.606Z,52.49
2023-02-20T14:29:40.571Z,53.04
2023-02-20T14:32:07.940Z,51.49
2023-02-20T14:34:57.620Z,50.39
2023-02-20T14:37:56.748Z,49.36
2023-02-20T14:40:51.460Z,49.43
2023-02-20T14:43:21.544Z,49.56
2023-02-20T14:46:06.560Z,50.10
2023-02-20T14:48:39.563Z,50.72
2023-02-20T14:51:27.806Z,50.63
2023-02-20T14:54:01.742Z,50.74
2023-02-20T14:56:29.702Z,50.50
2023-02-20T14:58:58.161Z,49.63
2023-02-20T15:01:38.357Z,49.94
2023-02-20T15:04:15.192Z,49.19
2023-02-20T15:06:45.716Z,49.05
2023-02-20T15:09:22.532Z,49.29
2023-02-20T15:11:58.150Z,49.20
2023-02-20T15:14:32.582Z,49.65
2023-02-20T15:17:22.665Z,49.62
2023-02-20T15:19:50.336Z,49.52
2023-02-20T15:22:41.392Z,50.09
2023-02-20T15:25:15.002Z,49.79
2023-02-20T15:28:05.821Z,49.38
2023-02-20T15:30:33.311Z,49.43
2023-02-20T15:33:00.377Z,49.90
2023-02-20T15:35:32.939Z,50.38
2023-02-20T15:38:02.986Z,51.06
2023-02-20T15:40:32.277Z,51.60
2023-02-20T15:43:04.372Z,52.52
2023-02-20T15:45:31.993Z,53.34
2023-02-20T15:48:02.780Z,53.38
2023-02-20T15:50:29.752Z,53.68
2023-02-20T15:52:58.782Z,53.76
2023-02-20T15:55:29.503Z,54.13
2023-02-20T15:57:59.322Z,54.77
2023-02-20T16:00:30.717Z,54.74
2023-02-20T16:02:57.512Z,54.58
2023-02-20T16:05:24.300Z,54.85
2023-02-20T16:07:52.160Z,55.43
2023-02-20T16:10:21.713Z,55.34
2023-02-20T16:12:53.118Z,55.59
2023-02-20T16:15:22.003Z,55.81
2023-02-20T16:17:49.702Z,56.09
2023-02-20T16:20:24.740Z,56.38
2023-02-20T16:22:52.096Z,56.41
2023-02-20T16:25:22.160Z,56.27
2023-02-20T16:27:53.805Z,56.92
2023-02-20T16:30:38.389Z,57.06
2023-02-20T16:33:17.633Z,57.32
2023-02-20T16:35:46.682Z,57.40
2023-02-20T16:38:13.693Z,57.53
2023-02-20T16:40:42.200Z,57.47
2023-02-20T16:43:12.789Z,57.78
2023-02-20T16:45:43.504Z,58.01
2023-02-20T16:48:18.309Z,57.96
2023-02-20T16:50:48.793Z,58.45
2023-02-20T16:53:15.881Z,58.49
2023-02-20T16:55:49.237Z,58.55
2023-02-20T16:58:16.260Z,58.66
2023-02-20T17:00:56.681Z,59.35
2023-02-20T17:03:26.160Z,59.24
2023-02-20T17:05:59.908Z,59.54
2023-02-20T17:08:27.806Z,59.55
2023-02-20T17:10:54.655Z,59.63
2023-02-20T17:13:21.657Z,59.75
2023-02-20T17:15:50.124Z,60.13
2023-02-20T17:18:18.301Z,60.32
2023-02-20T17:20:45.241Z,60.30
2023-02-20T17:23:12.179Z,60.54
2023-02-20T17:25:39.739Z,60.79
2023-02-20T17:28:07.981Z,61.03
2023-02-20T17:30:35.236Z,61.08
2023-02-20T17:33:02.656Z,61.10
2023-02-20T17:35:29.620Z,60.69
2023-02-20T17:37:56.522Z,61.11
2023-02-20T17:40:23.386Z,61.34
2023-02-20T17:42:50.090Z,61.30
2023-02-20T17:45:20.653Z,61.50
2023-02-20T17:47:48.180Z,61.71
2023-02-20T17:50:18.474Z,62.04
2023-02-20T17:52:46.101Z,61.92
2023-02-20T17:55:24.324Z,62.48
2023-02-20T17:57:51.750Z,62.25
2023-02-20T18:00:20.421Z,62.00
2023-02-20T18:02:47.818Z,62.00
2023-02-20T18:05:14.616Z,62.09
2023-02-20T18:07:41.349Z,61.58
2023-02-20T18:10:07.898Z,61.82
2023-02-20T18:12:37.379Z,61.99
2023-02-20T18:15:04.642Z,61.89
2023-02-20T18:17:33.085Z,61.77
2023-02-20T18:20:01.014Z,61.93
2023-02-20T18:22:27.575Z,61.76
2023-02-20T18:24:54.287Z,62.41
2023-02-20T18:27:21.914Z,62.72
2023-02-20T18:29:51.788Z,62.47
2023-02-20T18:32:18.530Z,62.65
2023-02-20T18:34:45.799Z,62.68
2023-02-20T18:37:14.438Z,62.76
2023-02-20T18:39:44.700Z,62.74
2023-02-20T18:42:11.610Z,63.01
2023-02-20T18:44:38.347Z,63.29
2023-02-20T18:47:05.565Z,63.44
2023-02-20T18:49:32.880Z,63.34
2023-02-20T18:52:01.243Z,63.59
2023-02-20T18:54:33.636Z,62.98
2023-02-20T18:57:02.469Z,63.26
2023-02-20T18:59:31.134Z,63.42
2023-02-20T19:01:58.693Z,63.45
2023-02-20T19:04:25.614Z,63.42
2023-02-20T19:06:53.036Z,63.34
2023-02-20T19:09:22.440Z,63.89
2023-02-20T19:11:53.449Z,63.74
2023-02-20T19:14:21.227Z,63.78
2023-02-20T19:16:49.928Z,63.92
2023-02-20T19:19:28.504Z,63.94
2023-02-20T19:21:55.487Z,63.91
2023-02-20T19:24:22.537Z,63.86
2023-02-20T19:26:49.653Z,63.93
2023-02-20T19:29:16.436Z,63.99
2023-02-20T19:31:44.499Z,63.72
2023-02-20T19:34:12.495Z,64.34
2023-02-20T19:36:44.099Z,64.14
2023-02-20T19:39:11.202Z,64.19
2023-02-20T19:41:39.659Z,63.98
2023-02-20T19:44:07.827Z,63.97
2023-02-20T19:46:39.412Z,63.94
2023-02-20T19:49:10.067Z,64.12
2023-02-20T19:51:36.977Z,64.35
2023-02-20T19:54:04.082Z,64.17
2023-02-20T19:56:30.868Z,64.05
2023-02-20T19:58:57.506Z,63.93
2023-02-20T20:01:25.223Z,64.16
2023-02-20T20:03:52.107Z,64.09
2023-02-20T20:06:20.007Z,63.70
2023-02-20T20:09:10.168Z,64.08
2023-02-20T20:11:34.997Z,63.79
2023-02-20T20:14:01.885Z,63.80
2023-02-20T20:16:32.283Z,63.88
2023-02-20T20:18:59.464Z,63.77
2023-02-20T20:21:26.467Z,63.49
2023-02-20T20:23:54.715Z,63.64
2023-02-20T20:26:27.003Z,63.78
2023-02-20T20:28:54.648Z,63.23
2023-02-20T20:31:26.380Z,63.64
2023-02-20T20:33:54.128Z,63.58
2023-02-20T20:36:21.247Z,63.55
2023-02-20T20:38:48.011Z,63.46
2023-02-20T20:41:15.673Z,63.59
2023-02-20T20:43:44.177Z,63.46
2023-02-20T20:46:15.815Z,63.96
2023-02-20T20:48:46.670Z,63.72
2023-02-20T20:51:17.767Z,63.89
2023-02-20T20:53:45.233Z,64.01
2023-02-20T20:56:13.433Z,63.88
2023-02-20T20:58:40.115Z,64.06
2023-02-20T21:01:07.148Z,64.04
2023-02-20T21:03:35.021Z,64.39
2023-02-20T21:06:02.416Z,64.32
2023-02-20T21:08:29.904Z,64.02
2023-02-20T21:10:56.783Z,64.19
2023-02-20T21:13:23.773Z,63.90
2023-02-20T21:15:50.405Z,64.22
2023-02-20T21:18:17.048Z,64.04
2023-02-20T21:20:43.825Z,64.57
2023-02-20T21:23:11.095Z,64.29
2023-02-20T21:25:38.432Z,64.38
2023-02-20T21:28:04.994Z,64.39
2023-02-20T21:30:31.761Z,64.34
2023-02-20T21:32:59.204Z,64.86
2023-02-20T21:35:26.898Z,64.97
2023-02-20T21:37:54.725Z,64.83
2023-02-20T21:40:21.368Z,65.25
2023-02-20T21:43:07.231Z,65.49
2023-02-20T21:45:36.283Z,65.20
2023-02-20T21:48:04.483Z,65.22
2023-02-20T21:50:31.862Z,65.54
2023-02-20T21:52:58.937Z,65.62
2023-02-20T21:55:25.619Z,65.02
2023-02-20T21:57:52.689Z,65.20
2023-02-20T22:00:19.298Z,65.87
2023-02-20T22:02:46.200Z,65.49
2023-02-20T22:05:13.516Z,65.81
2023-02-20T22:07:59.080Z,65.94
2023-02-20T22:10:44.997Z,65.87
2023-02-20T22:13:30.601Z,65.74
2023-02-20T22:16:16.188Z,66.18
2023-02-20T22:19:02.440Z,65.78
2023-02-20T22:21:47.908Z,66.42
2023-02-20T22:24:38.574Z,66.94
2023-02-20T22:27:26.791Z,66.31
2023-02-20T22:30:12.311Z,66.81
2023-02-20T22:32:57.893Z,66.57
2023-02-20T22:35:43.467Z,66.99
2023-02-20T22:38:28.796Z,67.16
2023-02-20T22:41:14.723Z,66.97
2023-02-20T22:44:00.183Z,67.42
2023-02-20T22:46:45.947Z,67.92
2023-02-20T22:49:31.224Z,67.54
2023-02-20T22:52:16.495Z,67.69
2023-02-20T22:55:05.485Z,67.59
2023-02-20T22:57:51.209Z,67.94
2023-02-20T23:00:36.423Z,68.01
2023-02-20T23:03:22.247Z,68.03
2023-02-20T23:06:17.315Z,68.10
2023-02-20T23:09:02.810Z,67.93
2023-02-20T23:11:50.655Z,68.22
2023-02-20T23:14:36.216Z,68.20
2023-02-20T23:17:34.893Z,68.37
2023-02-20T23:20:30.743Z,68.23
2023-02-20T23:23:15.977Z,68.41
2023-02-20T23:26:01.220Z,68.94
2023-02-20T23:28:47.101Z,68.93
2023-02-20T23:31:34.393Z,68.93
2023-02-20T23:34:20.341Z,69.05
2023-02-20T23:37:12.193Z,69.02
2023-02-20T23:39:57.380Z,69.03
2023-02-20T23:42:42.818Z,69.12
2023-02-20T23:45:28.710Z,69.17
2023-02-20T23:48:14.725Z,69.25
2023-02-20T23:51:00.908Z,68.91
2023-02-20T23:53:46.791Z,69.32
2023-02-20T23:56:32.840Z,69.98
2023-02-20T23:59:18.180Z,69.55
